Time,TemperatureF,DewpointF,PressureIn,WindDirection,WindDirectionDegrees,WindSpeedMPH,WindSpeedGustMPH,Humidity,HourlyPrecipIn,Conditions,Clouds,dailyrainin,SoftwareType,DateUTC
2013-03-05 00:02:00,41.0,23.0,30.05,WSW,239,28.0,36.0,49,0.00,,,0.00,,2013-03-05 05:02:00,
2013-03-05 00:12:00,41.0,23.0,30.05,WSW,239,28.0,36.0,49,0.00,,,0.00,,2013-03-05 05:12:00,
2013-03-05 00:22:00,42.0,24.0,30.06,SW,226,34.0,42.0,49,0.00,,,0.00,,2013-03-05 05:22:00,
2013-03-05 00:32:00,42.0,24.0,30.06,SW,228,28.0,39.0,49,0.00,,,0.00,,2013-03-05 05:32:00,
2013-03-05 00:42:00,42.0,24.0,30.06,SW,228,28.0,39.0,49,0.00,,,0.00,,2013-03-05 05:42:00,
2013-03-05 00:52:00,42.0,24.0,30.06,WSW,252,28.0,37.0,49,0.00,,,0.00,,2013-03-05 05:52:00,
2013-03-05 01:01:00,42.0,24.0,30.06,SW,233,30.0,36.0,49,0.00,,,0.00,,2013-03-05 06:01:00,
2013-03-05 01:11:00,42.0,24.0,30.06,SW,233,30.0,36.0,49,0.00,,,0.00,,2013-03-05 06:11:00,
2013-03-05 01:22:00,43.0,25.0,30.06,WSW,253,31.0,42.0,49,0.00,,,0.00,,2013-03-05 06:22:00,
2013-03-05 01:32:00,42.0,25.0,30.06,WSW,255,33.0,36.0,50,0.00,,,0.00,,2013-03-05 06:32:00,
2013-03-05 01:42:00,42.0,25.0,30.06,WSW,255,33.0,36.0,50,0.00,,,0.00,,2013-03-05 06:42:00,
2013-03-05 01:52:00,42.0,25.0,30.07,WSW,250,29.0,37.0,51,0.00,,,0.00,,2013-03-05 06:52:00,
2013-03-05 02:01:00,42.0,25.0,30.07,West,262,28.0,37.0,51,0.00,,,0.00,,2013-03-05 07:01:00,
2013-03-05 02:11:00,42.0,25.0,30.07,West,262,28.0,37.0,51,0.00,,,0.00,,2013-03-05 07:11:00,
2013-03-05 02:22:00,42.0,25.0,30.07,WSW,239,28.0,37.0,51,0.00,,,0.00,,2013-03-05 07:22:00,
2013-03-05 02:32:00,42.0,25.0,30.06,WSW,256,28.0,34.0,51,0.00,,,0.00,,2013-03-05 07:32:00,
2013-03-05 02:42:00,42.0,25.0,30.06,WSW,256,28.0,34.0,51,0.00,,,0.00,,2013-03-05 07:42:00,
2013-03-05 02:52:00,42.0,25.0,30.05,SW,229,33.0,38.0,51,0.00,,,0.00,,2013-03-05 07:52:00,
2013-03-05 03:02:00,43.0,26.0,30.04,WSW,254,37.0,46.0,51,0.00,,,0.00,,2013-03-05 08:02:00,
2013-03-05 03:11:00,43.0,26.0,30.04,WSW,254,37.0,46.0,51,0.00,,,0.00,,2013-03-05 08:11:00,
2013-03-05 03:21:00,43.0,26.0,30.03,WSW,240,37.0,45.0,51,0.00,,,0.00,,2013-03-05 08:21:00,
2013-03-05 03:31:00,43.0,26.0,30.03,West,260,38.0,46.0,51,0.00,,,0.00,,2013-03-05 08:31:00,
2013-03-05 03:42:00,43.0,26.0,30.03,West,260,38.0,46.0,51,0.00,,,0.00,,2013-03-05 08:42:00,
2013-03-05 03:52:00,43.0,27.0,30.02,WSW,249,32.0,43.0,52,0.00,,,0.00,,2013-03-05 08:52:00,
2013-03-05 04:01:00,43.0,27.0,30.02,SW,236,33.0,42.0,53,0.00,,,0.00,,2013-03-05 09:01:00,
2013-03-05 04:11:00,43.0,27.0,30.02,SW,236,33.0,42.0,53,0.00,,,0.00,,2013-03-05 09:11:00,
2013-03-05 04:21:00,43.0,27.0,30.02,SW,218,26.0,40.0,53,0.00,,,0.00,,2013-03-05 09:21:00,
2013-03-05 04:32:00,43.0,28.0,30.02,WSW,246,30.0,38.0,55,0.00,,,0.00,,2013-03-05 09:32:00,
2013-03-05 04:43:00,43.0,28.0,30.02,WSW,246,30.0,38.0,55,0.00,,,0.00,,2013-03-05 09:43:00,
2013-03-05 04:52:00,42.0,27.0,30.01,WSW,238,34.0,39.0,55,0.00,,,0.00,,2013-03-05 09:52:00,
2013-03-05 05:01:00,42.0,27.0,30.00,WSW,240,33.0,42.0,56,0.00,,,0.00,,2013-03-05 10:01:00,
2013-03-05 05:11:00,42.0,27.0,30.00,WSW,240,33.0,42.0,56,0.00,,,0.00,,2013-03-05 10:11:00,
2013-03-05 05:22:00,42.0,29.0,30.00,SW,225,33.0,42.0,60,0.00,,,0.00,,2013-03-05 10:22:00,
2013-03-05 05:32:00,41.0,28.0,30.01,WSW,240,30.0,44.0,60,0.00,,,0.00,,2013-03-05 10:32:00,
2013-03-05 05:42:00,41.0,28.0,30.01,WSW,240,30.0,44.0,60,0.00,,,0.00,,2013-03-05 10:42:00,
2013-03-05 05:52:00,41.0,29.0,30.01,West,266,30.0,38.0,61,0.00,,,0.00,,2013-03-05 10:52:00,
2013-03-05 06:01:00,41.0,31.0,30.01,SSW,203,28.0,38.0,66,0.00,,,0.00,,2013-03-05 11:01:00,
2013-03-05 06:11:00,41.0,31.0,30.01,SSW,203,28.0,38.0,66,0.00,,,0.00,,2013-03-05 11:11:00,
2013-03-05 06:22:00,40.0,28.0,30.01,West,259,25.0,34.0,62,0.00,,,0.00,,2013-03-05 11:22:00,
2013-03-05 06:32:00,39.0,28.0,30.01,SW,231,24.0,30.0,64,0.00,,,0.00,,2013-03-05 11:32:00,
2013-03-05 06:42:00,39.0,28.0,30.01,SW,231,24.0,30.0,64,0.00,,,0.00,,2013-03-05 11:42:00,
2013-03-05 06:52:00,39.0,30.0,30.00,West,266,17.0,22.0,71,0.00,,,0.00,,2013-03-05 11:52:00,
2013-03-05 07:02:00,39.0,31.0,30.00,SW,226,20.0,27.0,74,0.00,,,0.00,,2013-03-05 12:02:00,
2013-03-05 07:12:00,39.0,31.0,30.00,SW,226,20.0,27.0,74,0.00,,,0.00,,2013-03-05 12:12:00,
2013-03-05 07:22:00,39.0,30.0,29.99,WSW,252,26.0,32.0,71,0.00,,,0.00,,2013-03-05 12:22:00,
2013-03-05 07:32:00,39.0,30.0,29.99,West,267,23.0,32.0,71,0.00,,,0.00,,2013-03-05 12:32:00,
2013-03-05 07:42:00,39.0,30.0,29.99,West,267,23.0,32.0,71,0.00,,,0.00,,2013-03-05 12:42:00,
2013-03-05 07:53:00,41.0,38.0,29.98,SW,231,30.0,38.0,90,0.00,,,0.00,,2013-03-05 12:53:00,
2013-03-05 08:02:00,41.0,39.0,29.98,WSW,250,29.0,37.0,93,0.00,,,0.00,,2013-03-05 13:02:00,
2013-03-05 08:12:00,41.0,39.0,29.98,WSW,250,29.0,37.0,93,0.00,,,0.00,,2013-03-05 13:12:00,
2013-03-05 08:22:00,40.0,37.0,29.99,WSW,252,25.0,35.0,88,0.00,,,0.00,,2013-03-05 13:22:00,
2013-03-05 08:32:00,40.0,38.0,29.99,WSW,246,30.0,35.0,92,0.00,,,0.00,,2013-03-05 13:32:00,
2013-03-05 08:42:00,40.0,38.0,29.99,WSW,246,30.0,35.0,92,0.00,,,0.00,,2013-03-05 13:42:00,
2013-03-05 08:52:00,40.0,38.0,29.99,SW,236,26.0,34.0,92,0.00,,,0.00,,2013-03-05 13:52:00,
2013-03-05 09:02:00,40.0,37.0,29.98,WSW,243,21.0,31.0,88,0.00,,,0.00,,2013-03-05 14:02:00,
2013-03-05 09:11:00,40.0,37.0,29.98,WSW,243,21.0,31.0,88,0.00,,,0.00,,2013-03-05 14:11:00,
2013-03-05 09:22:00,40.0,38.0,29.98,WSW,253,33.0,39.0,94,0.00,,,0.00,,2013-03-05 14:22:00,
2013-03-05 09:32:00,41.0,40.0,29.98,SW,233,35.0,42.0,97,0.02,,,0.02,,2013-03-05 14:32:00,
2013-03-05 09:42:00,41.0,40.0,29.98,SW,233,35.0,42.0,97,0.02,,,0.02,,2013-03-05 14:42:00,
2013-03-05 09:52:00,41.0,40.0,29.97,WSW,257,37.0,47.0,98,0.04,,,0.04,,2013-03-05 14:52:00,
2013-03-05 10:02:00,40.0,39.0,29.97,West,263,31.0,42.0,98,0.04,,,0.04,,2013-03-05 15:02:00,
2013-03-05 10:11:00,40.0,39.0,29.97,West,263,31.0,42.0,98,0.04,,,0.04,,2013-03-05 15:11:00,
2013-03-05 10:22:00,40.0,39.0,29.97,SW,236,28.0,36.0,98,0.04,,,0.04,,2013-03-05 15:22:00,
2013-03-05 10:32:00,40.0,39.0,29.97,WSW,239,29.0,38.0,98,0.02,,,0.04,,2013-03-05 15:32:00,
2013-03-05 10:42:00,40.0,39.0,29.97,WSW,239,29.0,38.0,98,0.02,,,0.04,,2013-03-05 15:42:00,
2013-03-05 10:52:00,40.0,39.0,29.96,SW,233,28.0,37.0,98,0.00,,,0.04,,2013-03-05 15:52:00,
2013-03-05 11:01:00,40.0,39.0,29.96,West,266,26.0,34.0,98,0.00,,,0.04,,2013-03-05 16:01:00,
2013-03-05 11:11:00,40.0,39.0,29.96,West,266,26.0,34.0,98,0.00,,,0.04,,2013-03-05 16:11:00,
2013-03-05 11:22:00,41.0,40.0,29.96,WSW,239,33.0,41.0,98,0.00,,,0.04,,2013-03-05 16:22:00,
2013-03-05 11:32:00,42.0,42.0,29.95,WSW,248,40.0,44.0,99,0.00,,,0.04,,2013-03-05 16:32:00,
2013-03-05 11:42:00,42.0,42.0,29.95,WSW,248,40.0,44.0,99,0.00,,,0.04,,2013-03-05 16:42:00,
2013-03-05 11:52:00,41.0,41.0,29.94,WSW,256,30.0,38.0,99,0.00,,,0.04,,2013-03-05 16:52:00,
2013-03-05 12:01:00,41.0,41.0,29.94,WSW,255,26.0,36.0,99,0.01,,,0.05,,2013-03-05 17:01:00,
2013-03-05 12:11:00,41.0,41.0,29.94,WSW,255,26.0,36.0,99,0.01,,,0.05,,2013-03-05 17:11:00,
2013-03-05 12:22:00,42.0,42.0,29.93,WSW,253,30.0,38.0,99,0.01,,,0.05,,2013-03-05 17:22:00,
2013-03-05 12:32:00,43.0,43.0,29.93,West,267,32.0,40.0,99,0.01,,,0.05,,2013-03-05 17:32:00,
2013-03-05 12:42:00,43.0,43.0,29.93,West,267,32.0,40.0,99,0.01,,,0.05,,2013-03-05 17:42:00,
2013-03-05 12:53:00,42.0,42.0,29.92,WSW,245,27.0,35.0,99,0.01,,,0.05,,2013-03-05 17:53:00,
2013-03-05 13:02:00,42.0,42.0,29.91,SW,233,29.0,35.0,99,0.00,,,0.05,,2013-03-05 18:02:00,
2013-03-05 13:11:00,42.0,42.0,29.91,SW,233,29.0,35.0,99,0.00,,,0.05,,2013-03-05 18:11:00,
2013-03-05 13:22:00,43.0,43.0,29.91,WSW,248,27.0,35.0,99,0.00,,,0.05,,2013-03-05 18:22:00,
2013-03-05 13:32:00,43.0,43.0,29.91,WSW,246,27.0,37.0,99,0.00,,,0.05,,2013-03-05 18:32:00,
2013-03-05 13:42:00,43.0,43.0,29.91,WSW,246,27.0,37.0,99,0.00,,,0.05,,2013-03-05 18:42:00,
2013-03-05 13:53:00,42.0,42.0,29.89,WSW,243,30.0,41.0,99,0.00,,,0.05,,2013-03-05 18:53:00,
2013-03-05 14:01:00,42.0,42.0,29.88,SW,228,29.0,37.0,99,0.00,,,0.05,,2013-03-05 19:01:00,
2013-03-05 14:11:00,42.0,42.0,29.88,SW,228,29.0,37.0,99,0.00,,,0.05,,2013-03-05 19:11:00,
2013-03-05 14:21:00,43.0,43.0,29.86,WSW,257,34.0,41.0,99,0.00,,,0.05,,2013-03-05 19:21:00,
2013-03-05 14:32:00,44.0,44.0,29.86,WSW,243,40.0,43.0,99,0.00,,,0.05,,2013-03-05 19:32:00,
2013-03-05 14:42:00,44.0,44.0,29.86,WSW,243,40.0,43.0,99,0.00,,,0.05,,2013-03-05 19:42:00,
2013-03-05 14:52:00,43.0,43.0,29.85,SW,233,32.0,37.0,99,0.00,,,0.05,,2013-03-05 19:52:00,
2013-03-05 15:01:00,43.0,43.0,29.85,WSW,243,32.0,36.0,99,0.00,,,0.05,,2013-03-05 20:01:00,
2013-03-05 15:11:00,44.0,44.0,29.84,SSW,213,30.0,33.0,99,0.00,,,0.05,,2013-03-05 20:11:00,
2013-03-05 15:22:00,44.0,44.0,29.84,SSW,213,30.0,33.0,99,0.00,,,0.05,,2013-03-05 20:22:00,
2013-03-05 15:32:00,43.0,43.0,29.83,SW,232,25.0,31.0,99,0.00,,,0.05,,2013-03-05 20:32:00,
2013-03-05 15:42:00,43.0,43.0,29.83,SW,232,25.0,31.0,99,0.00,,,0.05,,2013-03-05 20:42:00,
2013-03-05 15:52:00,43.0,43.0,29.81,SW,227,22.0,29.0,99,0.00,,,0.05,,2013-03-05 20:52:00,
2013-03-05 16:02:00,43.0,43.0,29.81,SW,219,24.0,27.0,99,0.00,,,0.05,,2013-03-05 21:02:00,
2013-03-05 16:11:00,43.0,43.0,29.81,SW,219,24.0,27.0,99,0.00,,,0.05,,2013-03-05 21:11:00,
2013-03-05 16:22:00,44.0,44.0,29.80,SW,218,22.0,32.0,99,0.00,,,0.05,,2013-03-05 21:22:00,
2013-03-05 16:32:00,45.0,45.0,29.80,South,179,26.0,31.0,99,0.00,,,0.05,,2013-03-05 21:32:00,
2013-03-05 16:42:00,45.0,45.0,29.80,South,179,26.0,31.0,99,0.00,,,0.05,,2013-03-05 21:42:00,
2013-03-05 16:52:00,46.0,45.0,29.78,SSW,208,30.0,35.0,98,0.00,,,0.05,,2013-03-05 21:52:00,
2013-03-05 17:01:00,46.0,45.0,29.76,SSE,160,29.0,34.0,97,0.00,,,0.05,,2013-03-05 22:01:00,
2013-03-05 17:11:00,46.0,45.0,29.76,SSE,160,29.0,34.0,97,0.00,,,0.05,,2013-03-05 22:11:00,
2013-03-05 17:22:00,46.0,45.0,29.73,SSE,149,26.0,30.0,97,0.01,,,0.06,,2013-03-05 22:22:00,
2013-03-05 17:32:00,45.0,44.0,29.72,SE,127,24.0,36.0,97,0.01,,,0.06,,2013-03-05 22:32:00,
2013-03-05 17:42:00,45.0,44.0,29.72,SE,127,24.0,36.0,97,0.01,,,0.06,,2013-03-05 22:42:00,
2013-03-05 17:52:00,44.0,43.0,29.71,SE,141,18.0,29.0,97,0.04,,,0.09,,2013-03-05 22:52:00,
2013-03-05 18:01:00,44.0,43.0,29.70,South,169,20.0,30.0,98,0.07,,,0.12,,2013-03-05 23:01:00,
2013-03-05 18:11:00,44.0,43.0,29.70,South,169,20.0,30.0,98,0.07,,,0.12,,2013-03-05 23:11:00,
2013-03-05 18:22:00,45.0,45.0,29.72,SSE,160,26.0,33.0,99,0.16,,,0.22,,2013-03-05 23:22:00,
2013-03-05 18:32:00,45.0,45.0,29.75,WSW,239,14.0,34.0,99,0.19,,,0.26,,2013-03-05 23:32:00,
2013-03-05 18:42:00,45.0,45.0,29.75,WSW,239,14.0,34.0,99,0.19,,,0.26,,2013-03-05 23:42:00,
2013-03-05 18:53:00,46.0,46.0,29.73,WSW,248,19.0,27.0,99,0.26,,,0.35,,2013-03-05 23:53:00,
2013-03-05 19:01:00,46.0,46.0,29.72,WSW,257,20.0,21.0,99,0.27,,,0.39,,2013-03-06 00:01:00,
2013-03-05 19:11:00,46.0,46.0,29.72,WSW,257,20.0,21.0,99,0.27,,,0.39,,2013-03-06 00:11:00,
2013-03-05 19:22:00,46.0,46.0,29.70,WSW,243,19.0,32.0,99,0.19,,,0.41,,2013-03-06 00:22:00,
2013-03-05 19:32:00,45.0,45.0,29.70,West,266,23.0,30.0,99,0.14,,,0.41,,2013-03-06 00:32:00,
2013-03-05 19:42:00,45.0,45.0,29.70,West,266,23.0,30.0,99,0.14,,,0.41,,2013-03-06 00:42:00,
2013-03-05 19:52:00,45.0,45.0,29.69,WSW,253,29.0,40.0,99,0.07,,,0.42,,2013-03-06 00:52:00,
2013-03-05 20:02:00,45.0,45.0,29.70,WSW,240,28.0,40.0,99,0.03,,,0.42,,2013-03-06 01:02:00,
2013-03-05 20:11:00,45.0,45.0,29.70,WSW,240,28.0,40.0,99,0.03,,,0.42,,2013-03-06 01:11:00,
2013-03-05 20:22:00,44.0,44.0,29.69,SW,235,23.0,30.0,99,0.01,,,0.42,,2013-03-06 01:22:00,
2013-03-05 20:32:00,44.0,44.0,29.69,WSW,253,26.0,33.0,99,0.01,,,0.42,,2013-03-06 01:32:00,
2013-03-05 20:42:00,44.0,44.0,29.69,WSW,253,26.0,33.0,99,0.01,,,0.42,,2013-03-06 01:42:00,
2013-03-05 20:52:00,44.0,44.0,29.69,SW,226,25.0,31.0,99,0.00,,,0.42,,2013-03-06 01:52:00,
2013-03-05 21:01:00,43.0,43.0,29.67,WSW,255,30.0,38.0,99,0.00,,,0.42,,2013-03-06 02:01:00,
2013-03-05 21:11:00,43.0,43.0,29.67,WSW,255,30.0,38.0,99,0.00,,,0.42,,2013-03-06 02:11:00,
2013-03-05 21:22:00,44.0,41.0,29.67,WSW,257,33.0,45.0,89,0.00,,,0.42,,2013-03-06 02:22:00,
2013-03-05 21:32:00,43.0,38.0,29.67,West,280,30.0,38.0,82,0.00,,,0.42,,2013-03-06 02:32:00,
2013-03-05 21:42:00,43.0,38.0,29.67,West,280,30.0,38.0,82,0.00,,,0.42,,2013-03-06 02:42:00,
2013-03-05 21:52:00,43.0,39.0,29.66,West,273,30.0,37.0,85,0.00,,,0.42,,2013-03-06 02:52:00,
2013-03-05 22:02:00,43.0,39.0,29.67,WNW,284,24.0,36.0,86,0.00,,,0.42,,2013-03-06 03:02:00,
2013-03-05 22:11:00,43.0,39.0,29.67,WNW,284,24.0,36.0,86,0.00,,,0.42,,2013-03-06 03:11:00,
2013-03-05 22:22:00,40.0,39.0,29.67,WNW,285,25.0,35.0,95,0.00,,,0.42,,2013-03-06 03:22:00,
2013-03-05 22:32:00,40.0,38.0,29.67,WNW,287,20.0,29.0,91,0.00,,,0.42,,2013-03-06 03:32:00,
2013-03-05 22:42:00,40.0,38.0,29.67,WNW,287,20.0,29.0,91,0.00,,,0.42,,2013-03-06 03:42:00,
2013-03-05 22:53:00,40.0,31.0,29.66,WNW,288,26.0,39.0,69,0.00,,,0.42,,2013-03-06 03:53:00,
2013-03-05 23:02:00,39.0,29.0,29.66,WNW,298,21.0,37.0,68,0.00,,,0.42,,2013-03-06 04:02:00,
2013-03-05 23:11:00,39.0,29.0,29.66,WNW,298,21.0,37.0,68,0.00,,,0.42,,2013-03-06 04:11:00,
2013-03-05 23:22:00,37.0,28.0,29.67,West,262,16.0,28.0,70,0.00,,,0.42,,2013-03-06 04:22:00,
2013-03-05 23:32:00,36.0,28.0,29.66,WNW,302,16.0,24.0,72,0.00,,,0.42,,2013-03-06 04:32:00,
2013-03-05 23:42:00,36.0,28.0,29.66,WNW,302,16.0,24.0,72,0.00,,,0.42,,2013-03-06 04:42:00,
2013-03-05 23:52:00,35.0,28.0,29.66,WNW,288,19.0,24.0,74,0.00,,,0.42,,2013-03-06 04:52:00,